Terminal Aerodrome Forecast
Issued by NWS Tampa Bay Area, FL

Home | Current Version | Previous Version | Text Only | Print | Product List | Glossary On
Versions: 1 2 3 4 5 6 7 8 9 10 11 12 13 14
347
FTUS42 KTBW 181359 AAB
TAFFMY
TAF AMD
KFMY 181359Z 1814/1912 14005KT 4SM BR SCT012 SCT250
      TEMPO 1814/1815 1/2SM FG BKN004
     FM181900 26006KT P6SM SCT050 SCT250
     FM190000 VRB03KT P6SM FEW050 SCT250
     FM190700 VRB03KT 1SM BR BKN010=

USA.gov is the U.S. government's official web portal to all federal, state and local government web resources and services.